Wetterdaten: Woche 21.08.17 - 27.08.17 (KW34)
Datum Zeit Temp. A. Feuchte A. Luftdruck Regen Wind Richtung Taupunkt Windchill Windben
21.08.2017 00:00 16,8 C 65 % 1020,8 hPa 0,0 l/m 2,2 km/h N 10,1 C 16,8 C 11,7 km/h
21.08.2017 01:00 17,1 C 61 % 1021,0 hPa 0,0 l/m 6,8 km/h N 9,5 C 16,9 C 18,5 km/h
21.08.2017 02:00 16,8 C 62 % 1021,1 hPa 0,0 l/m 4,7 km/h N 9,4 C 16,7 C 16,1 km/h
21.08.2017 03:00 15,9 C 64 % 1021,0 hPa 0,0 l/m 1,2 km/h N 9,1 C 15,9 C 9,3 km/h
21.08.2017 04:00 15,4 C 64 % 1021,0 hPa 0,0 l/m 3,0 km/h N 8,7 C 15,4 C 11,7 km/h
21.08.2017 05:00 15,1 C 65 % 1020,9 hPa 0,0 l/m 0,8 km/h N 8,6 C 15,1 C 6,4 km/h
21.08.2017 06:00 14,8 C 66 % 1021,1 hPa 0,0 l/m 2,6 km/h N 8,5 C 14,8 C 13,7 km/h
21.08.2017 07:00 15,7 C 64 % 1021,2 hPa 0,0 l/m 6,4 km/h N 8,9 C 15,3 C 19,3 km/h
21.08.2017 08:00 16,5 C 64 % 1021,4 hPa 0,0 l/m 8,4 km/h N 9,5 C 15,5 C 23,3 km/h
21.08.2017 09:00 16,9 C 64 % 1021,6 hPa 0,0 l/m 9,7 km/h N 10,1 C 15,5 C 25,7 km/h
21.08.2017 10:00 18,1 C 60 % 1021,4 hPa 0,0 l/m 8,2 km/h N 10,1 C 17,3 C 24,9 km/h
21.08.2017 11:00 19,2 C 57 % 1021,2 hPa 0,0 l/m 9,0 km/h N 10,5 C 18,1 C 25,8 km/h
21.08.2017 12:00 20,0 C 54 % 1020,8 hPa 0,0 l/m 8,7 km/h N 10,5 C 19,2 C 23,3 km/h
21.08.2017 13:00 20,8 C 54 % 1020,4 hPa 0,0 l/m 8,1 km/h N 11,0 C 20,0 C 24,9 km/h
21.08.2017 14:00 20,8 C 52 % 1020,3 hPa 0,0 l/m 7,9 km/h N 10,6 C 20,2 C 25,0 km/h
21.08.2017 15:00 20,7 C 53 % 1020,0 hPa 0,0 l/m 7,0 km/h N 10,7 C 20,4 C 21,3 km/h
21.08.2017 16:00 20,6 C 51 % 1019,6 hPa 0,0 l/m 7,1 km/h N 10,2 C 20,2 C 22,1 km/h
21.08.2017 17:00 20,5 C 51 % 1019,6 hPa 0,0 l/m 7,1 km/h N 10,0 C 20,2 C 22,5 km/h
21.08.2017 18:00 19,8 C 53 % 1019,4 hPa 0,0 l/m 5,6 km/h N 9,8 C 19,7 C 20,1 km/h
21.08.2017 19:00 19,4 C 53 % 1019,7 hPa 0,0 l/m 4,8 km/h N 9,6 C 19,4 C 18,5 km/h
21.08.2017 20:00 18,8 C 55 % 1020,3 hPa 0,0 l/m 5,5 km/h N 9,5 C 18,8 C 18,1 km/h
21.08.2017 21:00 17,9 C 58 % 1020,8 hPa 0,0 l/m 2,5 km/h N 9,5 C 17,9 C 10,9 km/h
21.08.2017 22:00 17,6 C 59 % 1021,0 hPa 0,0 l/m 3,0 km/h N 9,4 C 17,6 C 12,9 km/h
21.08.2017 23:00 16,8 C 61 % 1021,1 hPa 0,0 l/m 0,4 km/h N 9,2 C 16,8 C 6,0 km/h
22.08.2017 00:00 15,5 C 65 % 1021,4 hPa 0,0 l/m 0,1 km/h N 9,0 C 15,5 C 2,0 km/h
22.08.2017 01:00 14,9 C 68 % 1021,1 hPa 0,0 l/m 0,4 km/h N 9,0 C 14,9 C 6,8 km/h
22.08.2017 02:00 15,2 C 65 % 1020,8 hPa 0,0 l/m 2,9 km/h N 8,7 C 15,2 C 9,7 km/h
22.08.2017 03:00 14,6 C 66 % 1020,9 hPa 0,0 l/m 0,2 km/h N 8,4 C 14,6 C 2,4 km/h
22.08.2017 04:00 13,1 C 72 % 1021,0 hPa 0,0 l/m 0,0 km/h N 8,1 C 13,1 C 1,2 km/h
22.08.2017 05:00 12,1 C 75 % 1021,2 hPa 0,0 l/m 0,0 km/h N 7,9 C 12,1 C 0,8 km/h
22.08.2017 06:00 11,6 C 77 % 1021,5 hPa 0,0 l/m 0,0 km/h N 7,7 C 11,6 C 0,0 km/h
22.08.2017 07:00 12,1 C 79 % 1021,6 hPa 0,0 l/m 0,0 km/h N 8,6 C 12,1 C 0,0 km/h
22.08.2017 08:00 14,0 C 78 % 1021,4 hPa 0,0 l/m 0,0 km/h N 10,2 C 14,0 C 1,2 km/h
22.08.2017 09:00 17,3 C 65 % 1021,1 hPa 0,0 l/m 0,7 km/h N 10,7 C 17,3 C 7,6 km/h
22.08.2017 10:00 19,2 C 58 % 1020,9 hPa 0,0 l/m 1,1 km/h N 10,6 C 19,2 C 8,0 km/h
22.08.2017 11:00 20,5 C 53 % 1020,3 hPa 0,0 l/m 1,5 km/h N 10,6 C 20,5 C 9,6 km/h
22.08.2017 12:00 20,6 C 51 % 1019,6 hPa 0,0 l/m 3,0 km/h N 10,1 C 20,6 C 16,1 km/h
22.08.2017 13:00 21,0 C 48 % 1019,1 hPa 0,0 l/m 4,2 km/h N 9,6 C 21,0 C 17,7 km/h
22.08.2017 14:00 21,5 C 50 % 1018,3 hPa 0,0 l/m 1,8 km/h N 10,7 C 21,5 C 14,5 km/h
22.08.2017 15:00 21,8 C 48 % 1017,8 hPa 0,0 l/m 2,4 km/h N 10,3 C 21,8 C 12,5 km/h
22.08.2017 16:00 21,6 C 49 % 1017,4 hPa 0,0 l/m 2,6 km/h N 10,3 C 21,6 C 12,5 km/h
22.08.2017 17:00 21,7 C 47 % 1017,1 hPa 0,0 l/m 3,3 km/h N 9,9 C 21,7 C 12,1 km/h
22.08.2017 18:00 21,3 C 49 % 1016,9 hPa 0,0 l/m 2,0 km/h N 10,2 C 21,3 C 10,1 km/h
22.08.2017 19:00 20,7 C 50 % 1017,0 hPa 0,0 l/m 0,6 km/h N 10,0 C 20,7 C 6,4 km/h
22.08.2017 20:00 19,9 C 54 % 1017,1 hPa 0,0 l/m 0,5 km/h N 10,2 C 19,9 C 4,4 km/h
22.08.2017 21:00 18,4 C 60 % 1017,3 hPa 0,0 l/m 0,0 km/h N 10,4 C 18,4 C 0,8 km/h
22.08.2017 22:00 17,1 C 65 % 1017,3 hPa 0,0 l/m 0,0 km/h N 10,3 C 17,1 C 0,8 km/h
22.08.2017 23:00 16,5 C 68 % 1017,5 hPa 0,0 l/m 0,0 km/h N 10,7 C 16,5 C 0,8 km/h
23.08.2017 00:00 15,9 C 70 % 1017,7 hPa 0,0 l/m 0,0 km/h N 10,3 C 15,9 C 0,0 km/h
23.08.2017 01:00 15,8 C 66 % 1017,9 hPa 0,0 l/m 0,1 km/h N 9,5 C 15,8 C 2,4 km/h
23.08.2017 02:00 15,8 C 66 % 1018,0 hPa 0,0 l/m 0,3 km/h N 9,3 C 15,8 C 3,2 km/h
23.08.2017 03:00 14,2 C 70 % 1018,2 hPa 0,0 l/m 0,0 km/h N 8,7 C 14,2 C 0,4 km/h
23.08.2017 04:00 12,8 C 75 % 1018,2 hPa 0,0 l/m 0,0 km/h N 8,4 C 12,8 C 0,4 km/h
23.08.2017 05:00 11,8 C 78 % 1018,3 hPa 0,0 l/m 0,0 km/h N 8,0 C 11,8 C 0,4 km/h
23.08.2017 06:00 10,9 C 79 % 1018,8 hPa 0,0 l/m 0,0 km/h N 7,4 C 10,9 C 0,0 km/h
23.08.2017 07:00 11,2 C 82 % 1019,2 hPa 0,0 l/m 0,0 km/h N 8,2 C 11,2 C 0,4 km/h
23.08.2017 08:00 13,5 C 78 % 1019,4 hPa 0,0 l/m 2,6 km/h N 9,8 C 13,5 C 6,8 km/h
23.08.2017 09:00 16,3 C 65 % 1019,4 hPa 0,0 l/m 2,2 km/h N 9,6 C 16,3 C 10,5 km/h
23.08.2017 10:00 18,0 C 55 % 1019,5 hPa 0,0 l/m 3,5 km/h N 8,9 C 18,0 C 13,7 km/h
23.08.2017 11:00 19,1 C 53 % 1019,2 hPa 0,0 l/m 3,1 km/h N 9,3 C 19,1 C 15,3 km/h
23.08.2017 12:00 20,1 C 52 % 1018,8 hPa 0,0 l/m 1,9 km/h N 9,8 C 20,1 C 11,3 km/h
23.08.2017 13:00 21,1 C 51 % 1018,4 hPa 0,0 l/m 1,9 km/h N 10,5 C 21,1 C 12,1 km/h
23.08.2017 14:00 21,8 C 50 % 1017,8 hPa 0,0 l/m 2,8 km/h N 10,7 C 21,8 C 14,1 km/h
23.08.2017 15:00 22,0 C 49 % 1017,3 hPa 0,0 l/m 2,6 km/h N 10,9 C 22,0 C 14,5 km/h
23.08.2017 16:00 22,0 C 48 % 1017,1 hPa 0,0 l/m 2,3 km/h N 10,4 C 22,0 C 11,7 km/h
23.08.2017 17:00 22,2 C 47 % 1017,0 hPa 0,0 l/m 3,1 km/h N 10,2 C 22,2 C 11,7 km/h
23.08.2017 18:00 21,9 C 47 % 1016,8 hPa 0,0 l/m 0,8 km/h N 10,0 C 21,9 C 7,6 km/h
23.08.2017 19:00 21,0 C 51 % 1016,8 hPa 0,0 l/m 0,0 km/h N 10,3 C 21,0 C 0,4 km/h
23.08.2017 20:00 18,4 C 59 % 1017,0 hPa 0,0 l/m 0,0 km/h N 10,1 C 18,4 C 0,0 km/h
23.08.2017 21:00 16,0 C 66 % 1017,4 hPa 0,0 l/m 0,0 km/h N 9,6 C 16,0 C 0,0 km/h
23.08.2017 22:00 14,6 C 72 % 1017,3 hPa 0,0 l/m 0,0 km/h N 9,7 C 14,6 C 1,2 km/h
23.08.2017 23:00 13,8 C 76 % 1017,5 hPa 0,0 l/m 0,0 km/h N 9,6 C 13,8 C 1,2 km/h
24.08.2017 00:00 13,2 C 78 % 1017,6 hPa 0,0 l/m 0,0 km/h N 9,4 C 13,2 C 0,4 km/h
24.08.2017 01:00 12,5 C 79 % 1017,4 hPa 0,0 l/m 0,0 km/h N 9,0 C 12,5 C 0,0 km/h
24.08.2017 02:00 12,0 C 81 % 1017,4 hPa 0,0 l/m 0,0 km/h N 8,8 C 12,0 C 0,4 km/h
24.08.2017 03:00 11,7 C 82 % 1017,2 hPa 0,0 l/m 0,0 km/h N 8,6 C 11,7 C 0,0 km/h
24.08.2017 04:00 11,5 C 82 % 1017,1 hPa 0,0 l/m 0,0 km/h N 8,5 C 11,5 C 1,6 km/h
24.08.2017 05:00 10,8 C 82 % 1017,1 hPa 0,0 l/m 0,0 km/h N 7,8 C 10,8 C 0,0 km/h
24.08.2017 06:00 10,2 C 82 % 1017,4 hPa 0,0 l/m 0,0 km/h N 7,2 C 10,2 C 0,0 km/h
24.08.2017 07:00 10,6 C 82 % 1017,8 hPa 0,0 l/m 0,0 km/h N 7,7 C 10,6 C 0,0 km/h
24.08.2017 08:00 12,8 C 82 % 1017,9 hPa 0,0 l/m 0,0 km/h N 9,8 C 12,8 C 0,4 km/h
24.08.2017 09:00 16,2 C 78 % 1018,1 hPa 0,0 l/m 0,1 km/h N 12,4 C 16,2 C 2,0 km/h
24.08.2017 10:00 20,5 C 66 % 1017,9 hPa 0,0 l/m 0,1 km/h N 13,8 C 20,5 C 2,0 km/h
24.08.2017 11:00 23,1 C 59 % 1017,6 hPa 0,0 l/m 0,1 km/h N 14,6 C 23,1 C 3,2 km/h
24.08.2017 12:00 25,0 C 54 % 1017,4 hPa 0,0 l/m 0,1 km/h N 14,9 C 25,0 C 4,8 km/h
24.08.2017 13:00 27,0 C 45 % 1017,0 hPa 0,0 l/m 0,7 km/h N 14,1 C 27,0 C 5,6 km/h
24.08.2017 14:00 27,3 C 46 % 1016,5 hPa 0,0 l/m 0,4 km/h N 14,6 C 27,3 C 4,8 km/h
24.08.2017 15:00 27,8 C 46 % 1016,0 hPa 0,0 l/m 0,3 km/h N 15,1 C 27,8 C 4,4 km/h
24.08.2017 16:00 28,3 C 46 % 1015,6 hPa 0,0 l/m 1,5 km/h N 15,5 C 28,3 C 8,1 km/h
24.08.2017 17:00 28,1 C 48 % 1015,4 hPa 0,0 l/m 0,2 km/h N 16,0 C 28,1 C 4,3 km/h
24.08.2017 18:00 28,1 C 48 % 1015,2 hPa 0,0 l/m 0,8 km/h N 16,0 C 28,1 C 8,9 km/h
24.08.2017 19:00 27,5 C 50 % 1015,0 hPa 0,0 l/m 0,0 km/h N 16,0 C 27,5 C 3,2 km/h
24.08.2017 20:00 24,9 C 58 % 1015,2 hPa 0,0 l/m 0,0 km/h N 16,0 C 24,9 C 0,8 km/h
24.08.2017 21:00 22,0 C 69 % 1015,3 hPa 0,0 l/m 0,0 km/h N 15,9 C 22,0 C 0,8 km/h
24.08.2017 22:00 20,6 C 74 % 1015,5 hPa 0,0 l/m 0,0 km/h N 15,8 C 20,6 C 0,8 km/h
24.08.2017 23:00 19,6 C 77 % 1015,7 hPa 0,0 l/m 0,0 km/h N 15,4 C 19,6 C 1,6 km/h
25.08.2017 00:00 18,5 C 80 % 1015,9 hPa 0,0 l/m 0,0 km/h N 14,9 C 18,5 C 1,6 km/h
25.08.2017 01:00 18,4 C 81 % 1016,6 hPa 0,0 l/m 0,0 km/h N 15,1 C 18,4 C 1,6 km/h
25.08.2017 02:00 23,5 C 62 % 1016,8 hPa 0,0 l/m 10,4 km/h N 15,7 C 22,4 C 40,2 km/h
25.08.2017 03:00 23,1 C 62 % 1015,5 hPa 0,0 l/m 9,6 km/h N 15,3 C 22,3 C 29,8 km/h
25.08.2017 04:00 22,5 C 65 % 1016,2 hPa 0,0 l/m 2,4 km/h N 15,4 C 22,5 C 14,4 km/h
25.08.2017 05:00 21,5 C 67 % 1016,8 hPa 0,0 l/m 0,0 km/h N 15,0 C 21,5 C 8,1 km/h
25.08.2017 06:00 19,7 C 74 % 1017,8 hPa 0,0 l/m 0,0 km/h N 14,9 C 19,7 C 0,5 km/h
25.08.2017 07:00 19,8 C 77 % 1018,2 hPa 0,0 l/m 0,0 km/h N 15,5 C 19,8 C 0,8 km/h
25.08.2017 08:00 21,0 C 75 % 1018,4 hPa 0,0 l/m 0,0 km/h N 16,3 C 21,0 C 0,8 km/h
25.08.2017 09:00 22,1 C 72 % 1018,7 hPa 0,0 l/m 0,0 km/h N 16,9 C 22,1 C 0,0 km/h
25.08.2017 10:00 23,8 C 69 % 1018,8 hPa 0,0 l/m 0,0 km/h N 17,6 C 23,8 C 0,4 km/h
25.08.2017 11:00 26,9 C 60 % 1018,6 hPa 0,0 l/m 0,1 km/h N 18,4 C 26,9 C 2,0 km/h
25.08.2017 12:00 29,4 C 50 % 1018,2 hPa 0,0 l/m 2,0 km/h N 17,7 C 29,4 C 11,3 km/h
25.08.2017 13:00 30,2 C 45 % 1017,6 hPa 0,0 l/m 1,8 km/h N 16,7 C 30,2 C 9,3 km/h
25.08.2017 14:00 30,5 C 43 % 1017,0 hPa 0,0 l/m 1,7 km/h N 16,3 C 30,5 C 10,1 km/h
25.08.2017 15:00 30,7 C 42 % 1016,4 hPa 0,0 l/m 1,2 km/h N 16,3 C 30,7 C 7,6 km/h
25.08.2017 16:00 30,3 C 44 % 1016,1 hPa 0,0 l/m 0,9 km/h N 16,5 C 30,3 C 9,2 km/h
25.08.2017 17:00 30,0 C 44 % 1015,9 hPa 0,0 l/m 0,3 km/h N 16,4 C 30,0 C 4,8 km/h
25.08.2017 18:00 29,5 C 43 % 1015,7 hPa 0,0 l/m 0,2 km/h N 15,6 C 29,5 C 3,2 km/h
25.08.2017 19:00 28,4 C 46 % 1015,8 hPa 0,0 l/m 0,0 km/h N 15,5 C 28,4 C 0,4 km/h
25.08.2017 20:00 25,3 C 56 % 1016,2 hPa 0,0 l/m 0,0 km/h N 15,9 C 25,3 C 0,0 km/h
25.08.2017 21:00 22,6 C 65 % 1016,4 hPa 0,0 l/m 0,0 km/h N 15,7 C 22,6 C 0,0 km/h
25.08.2017 22:00 21,0 C 71 % 1016,3 hPa 0,0 l/m 0,0 km/h N 15,5 C 21,0 C 0,0 km/h
25.08.2017 23:00 20,1 C 74 % 1016,0 hPa 0,0 l/m 0,0 km/h N 15,3 C 20,1 C 0,4 km/h
26.08.2017 00:00 19,4 C 76 % 1015,9 hPa 0,0 l/m 0,0 km/h N 15,0 C 19,4 C 0,0 km/h
26.08.2017 01:00 18,5 C 78 % 1015,6 hPa 0,0 l/m 0,0 km/h N 14,5 C 18,5 C 0,0 km/h
26.08.2017 02:00 17,6 C 80 % 1015,2 hPa 0,0 l/m 0,0 km/h N 14,1 C 17,6 C 0,0 km/h
26.08.2017 03:00 17,1 C 81 % 1015,0 hPa 0,0 l/m 0,0 km/h N 13,9 C 17,1 C 0,0 km/h
26.08.2017 04:00 16,9 C 82 % 1015,2 hPa 0,0 l/m 0,0 km/h N 13,7 C 16,9 C 0,0 km/h
26.08.2017 05:00 16,6 C 82 % 1015,6 hPa 0,0 l/m 0,0 km/h N 13,5 C 16,6 C 0,0 km/h
26.08.2017 06:00 16,4 C 82 % 1015,7 hPa 0,0 l/m 0,0 km/h N 13,4 C 16,4 C 0,0 km/h
26.08.2017 07:00 17,2 C 82 % 1016,1 hPa 0,0 l/m 0,0 km/h N 14,1 C 17,2 C 1,2 km/h
26.08.2017 08:00 18,6 C 82 % 1016,3 hPa 0,0 l/m 0,1 km/h N 15,5 C 18,6 C 2,0 km/h
26.08.2017 09:00 23,1 C 70 % 1016,4 hPa 0,0 l/m 2,8 km/h N 17,2 C 23,1 C 14,5 km/h
26.08.2017 10:00 26,4 C 59 % 1016,2 hPa 0,0 l/m 2,0 km/h N 17,6 C 26,4 C 10,9 km/h
26.08.2017 11:00 27,2 C 59 % 1016,2 hPa 0,0 l/m 3,7 km/h N 18,4 C 27,2 C 14,9 km/h
26.08.2017 12:00 27,5 C 58 % 1015,8 hPa 0,0 l/m 1,2 km/h N 18,4 C 27,5 C 8,4 km/h
26.08.2017 13:00 29,6 C 50 % 1015,4 hPa 0,0 l/m 0,5 km/h N 17,9 C 29,6 C 5,2 km/h
26.08.2017 14:00 30,9 C 47 % 1014,9 hPa 0,0 l/m 3,0 km/h N 18,3 C 30,9 C 12,5 km/h
26.08.2017 15:00 31,4 C 45 % 1014,3 hPa 0,0 l/m 1,9 km/h N 18,0 C 31,4 C 9,3 km/h
26.08.2017 16:00 31,9 C 43 % 1013,8 hPa 0,0 l/m 1,5 km/h N 17,7 C 31,9 C 10,1 km/h
26.08.2017 17:00 31,9 C 41 % 1013,4 hPa 0,0 l/m 1,5 km/h N 16,9 C 31,9 C 10,1 km/h
26.08.2017 18:00 31,4 C 42 % 1013,1 hPa 0,0 l/m 0,3 km/h N 16,9 C 31,4 C 3,2 km/h
26.08.2017 19:00 29,3 C 52 % 1013,1 hPa 0,0 l/m 0,0 km/h N 18,2 C 29,3 C 0,4 km/h
26.08.2017 20:00 26,3 C 60 % 1013,1 hPa 0,0 l/m 0,0 km/h N 17,8 C 26,3 C 0,0 km/h
26.08.2017 21:00 24,0 C 67 % 1013,3 hPa 0,0 l/m 0,0 km/h N 17,5 C 24,0 C 0,0 km/h
26.08.2017 22:00 22,8 C 73 % 1013,6 hPa 0,0 l/m 0,0 km/h N 17,6 C 22,8 C 0,4 km/h
26.08.2017 23:00 22,5 C 74 % 1013,5 hPa 0,0 l/m 0,0 km/h N 17,6 C 22,5 C 0,4 km/h
27.08.2017 00:00 21,5 C 76 % 1013,5 hPa 0,0 l/m 0,0 km/h N 17,1 C 21,5 C 0,8 km/h
27.08.2017 01:00 21,2 C 77 % 1013,4 hPa 0,0 l/m 0,0 km/h N 17,0 C 21,2 C 0,4 km/h
27.08.2017 02:00 20,9 C 77 % 1013,3 hPa 0,0 l/m 0,0 km/h N 16,7 C 20,9 C 0,0 km/h
27.08.2017 03:00 20,5 C 79 % 1013,2 hPa 0,0 l/m 0,0 km/h N 16,7 C 20,5 C 0,0 km/h
27.08.2017 04:00 20,1 C 80 % 1013,0 hPa 0,0 l/m 0,0 km/h N 16,5 C 20,1 C 0,8 km/h
27.08.2017 05:00 19,8 C 79 % 1013,0 hPa 0,0 l/m 0,1 km/h N 16,0 C 19,8 C 1,2 km/h
27.08.2017 06:00 20,1 C 78 % 1013,2 hPa 0,0 l/m 0,0 km/h N 16,2 C 20,1 C 0,0 km/h
27.08.2017 07:00 20,6 C 78 % 1013,7 hPa 0,0 l/m 0,0 km/h N 16,7 C 20,6 C 1,6 km/h
27.08.2017 08:00 22,0 C 74 % 1014,0 hPa 0,0 l/m 0,0 km/h N 17,1 C 22,0 C 1,2 km/h
27.08.2017 09:00 26,4 C 58 % 1013,9 hPa 0,0 l/m 0,6 km/h N 17,3 C 26,4 C 7,2 km/h
27.08.2017 10:00 28,6 C 48 % 1014,2 hPa 0,0 l/m 4,7 km/h N 16,6 C 28,6 C 20,5 km/h
27.08.2017 11:00 29,2 C 47 % 1014,1 hPa 0,0 l/m 4,2 km/h N 16,6 C 29,2 C 15,7 km/h
27.08.2017 12:00 30,3 C 46 % 1013,7 hPa 0,0 l/m 3,0 km/h N 17,3 C 30,3 C 13,7 km/h
27.08.2017 13:00 30,9 C 44 % 1013,3 hPa 0,0 l/m 4,3 km/h N 17,2 C 30,9 C 17,7 km/h
27.08.2017 14:00 31,2 C 44 % 1012,7 hPa 0,0 l/m 5,2 km/h N 17,5 C 31,2 C 17,3 km/h
27.08.2017 15:00 31,6 C 40 % 1012,0 hPa 0,0 l/m 5,1 km/h N 16,3 C 31,6 C 21,3 km/h
27.08.2017 16:00 31,3 C 40 % 1011,6 hPa 0,0 l/m 6,1 km/h N 16,2 C 31,3 C 21,7 km/h
27.08.2017 17:00 30,5 C 43 % 1012,1 hPa 0,0 l/m 6,5 km/h N 16,5 C 30,3 C 22,5 km/h
27.08.2017 18:00 26,5 C 56 % 1013,4 hPa 0,0 l/m 7,1 km/h N 17,0 C 26,4 C 23,3 km/h
27.08.2017 19:00 24,7 C 63 % 1013,9 hPa 0,0 l/m 4,2 km/h N 17,1 C 24,5 C 16,5 km/h
27.08.2017 20:00 24,0 C 62 % 1014,6 hPa 0,0 l/m 2,4 km/h N 16,2 C 24,0 C 10,9 km/h
27.08.2017 21:00 23,6 C 60 % 1014,4 hPa 0,0 l/m 2,2 km/h N 15,4 C 23,6 C 10,5 km/h
27.08.2017 22:00 22,7 C 65 % 1015,1 hPa 0,0 l/m 1,5 km/h N 15,7 C 22,7 C 8,8 km/h
27.08.2017 23:00 21,6 C 70 % 1015,9 hPa 0,0 l/m 0,3 km/h N 15,8 C 21,6 C 3,6 km/h
Min-Datum _ 24.08.17 26.08.17 27.08.17 - 21.08.17 - 24.08.17 24.08.17 21.08.17
_ Min-Zeit 06:45 16:45 16:30 - 05:45 - 06:45 06:45 05:45
Minimum _ 10,0 C 38 % 1011,4 hPa - 0,0 km/h - 7,1 C 10,0 C 0,0 km/h
Max-Datum _ 26.08.17 23.08.17 21.08.17 21.08.17 25.08.17 - 25.08.17 26.08.17 25.08.17
_ Max-Zeit 16:45 07:15 09:00 00:00 02:30 - 11:30 16:45 02:00
Maximum _ 32,0 C 82 % 1021,7 hPa 0,0 l/m 12,9 km/h
N
- 18,8 C 32,0 C 40,2 km/h
N
Durchschnitt _ 20,8 C 62 % 1017,2 hPa #0,0 l/m 1,8 km/h N 12,9 C 20,8 C 7,6 km/h